Time;durP1;ratioP1;P1;durP2;ratioP2;P2;SDS_P1;SDS_P2;PMS_P1;PMS_P2;Temp;Humidity;BMP_temperature;BMP_pressure;BME280_temperature;BME280_humidity;BME280_pressure;Samples;Min_cycle;Max_cycle;Signal;HPM_P1;HPM_P2
2023/08/25 00:02:03;;;;;;;9.82;7.32;;;;;;;25.65;50.00;100781.38;5045057;28;20040;-59
2023/08/25 00:04:30;;;;;;;7.93;7.10;;;;;;;25.65;50.01;100772.41;5032788;28;20037;-60
2023/08/25 00:06:58;;;;;;;8.00;7.20;;;;;;;25.71;49.92;100762.72;5032793;28;20491;-59
2023/08/25 00:09:25;;;;;;;8.20;7.43;;;;;;;25.81;50.12;100761.53;5033748;28;20045;-59
2023/08/25 00:11:52;;;;;;;7.97;7.20;;;;;;;25.94;50.49;100763.66;5033238;28;20054;-59
2023/08/25 00:14:20;;;;;;;9.88;7.93;;;;;;;26.05;50.86;100763.28;5033257;28;20484;-60
2023/08/25 00:16:47;;;;;;;9.40;7.13;;;;;;;26.16;51.17;100772.00;5033326;28;20072;-59
2023/08/25 00:19:17;;;;;;;7.35;6.65;;;;;;;26.24;51.87;100772.81;5033662;28;20045;-50
2023/08/25 00:21:45;;;;;;;8.50;7.65;;;;;;;26.32;52.14;100769.19;5033060;28;20037;-50
2023/08/25 00:24:12;;;;;;;8.27;7.45;;;;;;;26.39;52.61;100781.88;5033122;28;20049;-50
2023/08/25 00:26:40;;;;;;;8.73;7.70;;;;;;;26.46;52.93;100771.19;5034834;28;20419;-51
2023/08/25 00:29:07;;;;;;;8.80;7.90;;;;;;;26.51;53.30;100767.94;5035838;28;20049;-60
2023/08/25 00:31:34;;;;;;;8.30;7.50;;;;;;;26.57;53.74;100769.91;5034640;28;20056;-59
2023/08/25 00:34:02;;;;;;;9.15;7.55;;;;;;;26.63;53.98;100761.03;5036789;28;20045;-60
2023/08/25 00:36:29;;;;;;;8.85;8.02;;;;;;;26.69;54.01;100756.75;5036423;28;20542;-60
2023/08/25 00:38:57;;;;;;;9.38;8.10;;;;;;;26.76;54.07;100755.00;5047086;28;20048;-60
2023/08/25 00:41:24;;;;;;;9.52;8.50;;;;;;;26.83;53.78;100761.38;5039276;28;20045;-60
2023/08/25 00:43:52;;;;;;;9.35;8.38;;;;;;;26.90;53.62;100753.34;5036878;28;20384;-60
2023/08/25 00:46:20;;;;;;;8.52;7.72;;;;;;;26.97;53.71;100755.13;5035137;28;20048;-60
2023/08/25 00:48:48;;;;;;;9.00;8.10;;;;;;;27.01;53.52;100759.16;5035602;28;20546;-50
2023/08/25 00:51:18;;;;;;;8.48;7.68;;;;;;;27.07;53.34;100760.31;5033966;28;20060;-51
2023/08/25 00:53:46;;;;;;;8.77;7.40;;;;;;;27.12;53.33;100766.06;5036327;28;20503;-50
2023/08/25 00:56:14;;;;;;;8.73;7.82;;;;;;;27.17;53.45;100765.50;5036096;28;20495;-50
2023/08/25 00:58:41;;;;;;;9.10;8.00;;;;;;;27.20;53.15;100749.69;5036982;28;20140;-59
2023/08/25 01:01:12;;;;;;;8.07;7.28;;;;;;;27.24;53.20;100756.44;5034690;28;20074;-60
2023/08/25 01:03:40;;;;;;;9.60;8.25;;;;;;;27.29;53.19;100764.03;5036199;28;20104;-60
2023/08/25 01:06:10;;;;;;;7.95;7.25;;;;;;;27.32;53.12;100760.94;5036026;28;20045;-60
2023/08/25 01:08:38;;;;;;;9.55;7.43;;;;;;;27.36;52.78;100762.25;5036786;28;20056;-52
2023/08/25 01:11:44;;;;;;;7.20;6.50;;;;;;;27.37;52.80;100761.22;5038599;28;20042;-49
2023/08/25 01:14:20;;;;;;;8.88;7.18;;;;;;;27.40;52.76;100766.28;5043823;28;20044;-50
2023/08/25 01:16:50;;;;;;;8.30;7.45;;;;;;;27.44;52.69;100762.16;5049648;28;20056;-60
2023/08/25 01:19:51;;;;;;;8.32;7.53;;;;;;;27.46;52.85;100764.69;5040093;28;20049;-60
2023/08/25 01:22:27;;;;;;;8.73;7.82;;;;;;;27.49;52.66;100754.28;5038730;28;20057;-60
2023/08/25 01:25:13;;;;;;;8.95;8.05;;;;;;;27.52;52.68;100750.34;5050895;28;20446;-60
2023/08/25 01:27:40;;;;;;;7.65;6.93;;;;;;;27.54;52.39;100751.00;5045460;28;20048;-49
2023/08/25 01:30:08;;;;;;;8.05;7.22;;;;;;;27.56;52.43;100749.78;5041990;28;20052;-60
2023/08/25 01:32:37;;;;;;;8.15;7.38;;;;;;;27.59;52.50;100748.59;5050764;28;20051;-60
2023/08/25 01:35:05;;;;;;;7.35;6.45;;;;;;;27.60;52.31;100755.69;5041392;28;20048;-60
2023/08/25 01:37:41;;;;;;;8.13;7.28;;;;;;;27.63;52.12;100749.03;5042967;28;20411;-59
2023/08/25 01:40:21;;;;;;;7.68;6.88;;;;;;;27.65;52.21;100752.41;5040674;28;20049;-60
2023/08/25 01:42:54;;;;;;;7.05;6.40;;;;;;;27.66;52.56;100754.94;5039540;28;20045;-60
2023/08/25 01:45:23;;;;;;;8.35;7.50;;;;;;;27.69;52.54;100757.28;5044741;28;20388;-60
2023/08/25 01:47:54;;;;;;;7.90;7.10;;;;;;;27.70;52.35;100756.25;5041620;28;20053;-50
2023/08/25 01:50:22;;;;;;;7.28;6.57;;;;;;;27.72;52.35;100759.63;5049111;28;20053;-48
2023/08/25 01:52:49;;;;;;;7.97;6.90;;;;;;;27.72;51.98;100754.19;5039094;28;20052;-52
2023/08/25 01:55:17;;;;;;;8.02;7.22;;;;;;;27.75;52.21;100752.97;5045408;28;20041;-52
2023/08/25 01:57:44;;;;;;;8.18;7.38;;;;;;;27.76;52.40;100754.69;5040826;28;20052;-59
2023/08/25 02:00:12;;;;;;;7.50;6.70;;;;;;;27.78;52.37;100749.88;5048494;28;20044;-59
2023/08/25 02:02:42;;;;;;;7.60;6.85;;;;;;;27.80;51.89;100750.56;5048148;28;20045;-59
2023/08/25 02:05:10;;;;;;;8.00;7.03;;;;;;;27.80;52.27;100747.84;5042491;28;20049;-59
2023/08/25 02:07:38;;;;;;;8.50;6.57;;;;;;;27.82;51.96;100756.63;5048640;28;20041;-51
2023/08/25 02:10:05;;;;;;;7.78;6.75;;;;;;;27.82;51.89;100746.59;5038913;28;20045;-52
2023/08/25 02:12:34;;;;;;;7.75;7.05;;;;;;;27.83;52.02;100745.59;5047507;28;20475;-50
2023/08/25 02:15:01;;;;;;;7.97;7.18;;;;;;;27.87;51.86;100747.91;5045651;28;20053;-49
2023/08/25 02:17:29;;;;;;;7.75;6.93;;;;;;;27.87;52.22;100740.56;5038241;28;20045;-49
2023/08/25 02:19:56;;;;;;;7.07;6.38;;;;;;;27.88;51.88;100753.16;5033001;28;20053;-60
2023/08/25 02:22:24;;;;;;;8.25;6.75;;;;;;;27.90;52.21;100758.41;5035192;28;20389;-60
2023/08/25 02:24:53;;;;;;;7.40;6.43;;;;;;;27.91;51.83;100762.81;5034822;28;20041;-60
2023/08/25 02:27:20;;;;;;;8.85;7.10;;;;;;;27.92;52.26;100767.25;5034900;28;20046;-59
2023/08/25 02:29:48;;;;;;;8.30;7.07;;;;;;;27.93;51.98;100764.31;5033043;28;20068;-52
2023/08/25 02:32:15;;;;;;;7.57;6.57;;;;;;;27.95;52.03;100767.69;5034448;28;20053;-50
2023/08/25 02:34:43;;;;;;;7.90;6.82;;;;;;;27.96;51.75;100766.66;5047186;28;20052;-49
2023/08/25 02:37:10;;;;;;;6.72;6.03;;;;;;;27.97;52.07;100762.06;5033928;28;20045;-50
2023/08/25 02:39:37;;;;;;;6.82;6.15;;;;;;;27.97;51.58;100760.19;5034084;28;20526;-50
2023/08/25 02:42:05;;;;;;;6.75;5.88;;;;;;;27.99;51.91;100763.53;5034321;28;20053;-49
2023/08/25 02:44:32;;;;;;;6.90;6.20;;;;;;;28.00;51.84;100759.81;5033374;28;20077;-50
2023/08/25 02:47:00;;;;;;;7.03;6.20;;;;;;;28.01;51.72;100763.38;5035934;28;20049;-51
2023/08/25 02:49:28;;;;;;;8.18;6.28;;;;;;;28.02;51.78;100759.59;5036859;28;20056;-60
2023/08/25 02:51:56;;;;;;;7.85;6.45;;;;;;;28.03;51.75;100755.84;5046438;28;20049;-59
2023/08/25 02:54:23;;;;;;;7.25;6.25;;;;;;;28.04;51.72;100765.72;5044908;28;20052;-60
2023/08/25 02:56:51;;;;;;;7.03;6.18;;;;;;;28.04;51.71;100769.28;5032867;28;20389;-60
2023/08/25 02:59:18;;;;;;;7.07;6.38;;;;;;;28.05;52.12;100765.50;5049376;28;20056;-53
2023/08/25 03:01:45;;;;;;;7.43;6.63;;;;;;;28.05;52.18;100765.50;5040058;28;20067;-49
2023/08/25 03:04:13;;;;;;;7.63;6.72;;;;;;;28.08;51.77;100765.13;5042247;28;20049;-52
2023/08/25 03:06:40;;;;;;;9.18;6.65;;;;;;;28.09;51.71;100760.53;5046793;28;20044;-50
2023/08/25 03:09:08;;;;;;;6.93;5.82;;;;;;;28.10;52.03;100759.50;5043003;28;20399;-51
2023/08/25 03:11:35;;;;;;;7.70;6.90;;;;;;;28.12;51.62;100765.59;5032813;28;20053;-50
2023/08/25 03:14:05;;;;;;;6.13;5.50;;;;;;;28.11;51.68;100758.44;5033481;28;20061;-49
2023/08/25 03:16:33;;;;;;;6.53;5.85;;;;;;;28.13;52.07;100761.00;5034255;28;20590;-50
2023/08/25 03:19:01;;;;;;;6.70;6.10;;;;;;;28.14;51.93;100765.41;5047966;28;20054;-49
2023/08/25 03:21:28;;;;;;;7.00;6.30;;;;;;;28.14;51.72;100768.97;5040024;28;20053;-51
2023/08/25 03:23:56;;;;;;;7.65;5.85;;;;;;;28.16;51.60;100763.34;5040288;28;20072;-50
2023/08/25 03:26:24;;;;;;;6.82;6.13;;;;;;;28.16;51.69;100761.47;5037310;28;20049;-51
2023/08/25 03:28:52;;;;;;;7.50;6.72;;;;;;;28.17;51.59;100762.31;5048108;28;20056;-51
2023/08/25 03:31:20;;;;;;;6.68;5.55;;;;;;;28.17;51.58;100760.41;5040450;28;20059;-50
2023/08/25 03:33:47;;;;;;;6.22;5.38;;;;;;;28.18;51.64;100761.25;5042031;28;20041;-50
2023/08/25 03:36:15;;;;;;;7.25;6.32;;;;;;;28.19;51.74;100758.34;5048038;28;20053;-59
2023/08/25 03:38:42;;;;;;;6.22;5.63;;;;;;;28.20;51.36;100751.03;5037647;28;20438;-60
2023/08/25 03:41:12;;;;;;;6.30;5.70;;;;;;;28.22;51.65;100765.28;5043823;28;20472;-60
2023/08/25 03:43:40;;;;;;;6.28;5.68;;;;;;;28.22;51.75;100763.41;5032968;28;20054;-60
2023/08/25 03:46:07;;;;;;;7.00;6.10;;;;;;;28.22;51.55;100760.69;5032097;28;20537;-60
2023/08/25 03:48:35;;;;;;;8.63;6.07;;;;;;;28.23;51.60;100751.47;5031750;28;20058;-51
2023/08/25 03:51:02;;;;;;;6.32;5.72;;;;;;;28.24;51.25;100764.06;5033699;28;20049;-49
2023/08/25 03:53:30;;;;;;;6.30;5.70;;;;;;;28.26;51.18;100763.84;5046026;28;20064;-51
2023/08/25 03:55:57;;;;;;;5.65;5.03;;;;;;;28.25;51.63;100767.63;5038008;28;20037;-62
2023/08/25 03:58:25;;;;;;;5.97;4.95;;;;;;;28.26;51.14;100777.47;5033644;28;20396;-63
2023/08/25 04:00:54;;;;;;;5.85;5.30;;;;;;;28.26;51.27;100778.31;5046904;28;20063;-63
2023/08/25 04:03:22;;;;;;;6.43;5.82;;;;;;;28.26;51.38;100770.16;5044798;28;20049;-63
2023/08/25 04:05:50;;;;;;;6.30;5.70;;;;;;;28.28;51.24;100789.03;5037190;28;20045;-63
2023/08/25 04:08:17;;;;;;;5.90;5.30;;;;;;;28.27;50.72;100781.88;5036255;28;20076;-63
2023/08/25 04:10:45;;;;;;;6.28;5.68;;;;;;;28.27;50.72;100788.16;5046931;28;20057;-63
2023/08/25 04:13:13;;;;;;;6.85;5.22;;;;;;;28.26;50.85;100780.19;5049456;28;20407;-64
2023/08/25 04:15:40;;;;;;;7.20;5.03;;;;;;;28.27;51.01;100784.59;5039414;28;20065;-63
2023/08/25 04:18:08;;;;;;;6.18;5.00;;;;;;;28.27;50.60;100776.44;5040344;28;20052;-59
2023/08/25 04:20:36;;;;;;;6.20;4.90;;;;;;;28.26;50.78;100782.91;5046412;28;20057;-59
2023/08/25 04:23:04;;;;;;;7.57;5.35;;;;;;;28.27;50.78;100781.88;5044246;28;20054;-59
2023/08/25 04:25:31;;;;;;;7.75;6.10;;;;;;;28.26;50.84;100782.91;5050802;28;20377;-59
2023/08/25 04:28:00;;;;;;;5.90;5.30;;;;;;;28.26;50.96;100788.38;5040128;28;20056;-63
2023/08/25 04:30:29;;;;;;;6.38;5.18;;;;;;;28.27;51.27;100784.59;5046311;28;20488;-63
2023/08/25 04:33:00;;;;;;;5.93;5.07;;;;;;;28.27;51.09;100782.72;5047960;28;20053;-63
2023/08/25 04:35:29;;;;;;;8.63;5.07;;;;;;;28.27;50.82;100781.88;5040402;28;20048;-64
2023/08/25 04:37:57;;;;;;;5.55;4.97;;;;;;;28.27;51.09;100784.59;5048764;28;20060;-59
2023/08/25 04:40:25;;;;;;;6.03;5.10;;;;;;;28.28;50.82;100789.03;5044898;28;20478;-59
2023/08/25 04:42:53;;;;;;;6.03;5.40;;;;;;;28.29;50.74;100787.97;5041662;28;20064;-59
2023/08/25 04:45:21;;;;;;;7.22;5.22;;;;;;;28.30;50.76;100795.09;5050312;28;20057;-59
2023/08/25 04:47:48;;;;;;;6.32;5.03;;;;;;;28.30;50.64;100789.66;5035425;28;20042;-59
2023/08/25 04:50:16;;;;;;;5.97;5.28;;;;;;;28.31;50.63;100784.00;5035119;28;20049;-59
2023/08/25 04:52:43;;;;;;;6.65;5.35;;;;;;;28.31;51.02;100785.91;5035923;28;20057;-59
2023/08/25 04:55:11;;;;;;;5.85;5.22;;;;;;;28.32;50.51;100787.59;5036445;28;20045;-59
2023/08/25 04:57:41;;;;;;;4.93;4.47;;;;;;;28.32;50.63;100787.59;5049242;28;20045;-59
2023/08/25 05:00:11;;;;;;;5.82;5.22;;;;;;;28.34;50.97;100786.34;5044045;28;20053;-59
2023/08/25 05:02:39;;;;;;;5.72;5.13;;;;;;;28.34;50.66;100788.25;5037659;28;20060;-59
2023/08/25 05:05:11;;;;;;;6.90;5.78;;;;;;;28.34;50.50;100788.25;5036604;28;20049;-59
2023/08/25 05:07:40;;;;;;;5.85;5.18;;;;;;;28.33;50.94;100781.97;5048929;28;20071;-63
2023/08/25 05:10:09;;;;;;;5.68;5.00;;;;;;;28.34;50.81;100782.78;5043334;28;20052;-63
2023/08/25 05:12:39;;;;;;;6.57;5.88;;;;;;;28.34;50.47;100780.91;5048418;28;20056;-64
2023/08/25 05:15:08;;;;;;;8.55;5.28;;;;;;;28.35;50.40;100781.75;5034963;28;20064;-64
2023/08/25 05:17:36;;;;;;;6.28;5.05;;;;;;;28.37;50.81;100787.91;5034243;28;20056;-63
2023/08/25 05:20:05;;;;;;;7.70;5.45;;;;;;;28.35;50.40;100782.59;5035406;28;20061;-64
2023/08/25 05:22:32;;;;;;;5.57;4.88;;;;;;;28.36;50.81;100783.50;5034500;28;20393;-60
2023/08/25 05:25:00;;;;;;;5.82;5.22;;;;;;;28.38;50.38;100780.56;5039732;28;20423;-59
2023/08/25 05:27:27;;;;;;;6.18;5.03;;;;;;;28.38;50.33;100777.84;5035494;28;20475;-63
2023/08/25 05:29:57;;;;;;;6.60;5.28;;;;;;;28.38;50.38;100780.56;5048136;28;20059;-63
2023/08/25 05:32:24;;;;;;;5.82;5.05;;;;;;;28.37;50.35;100774.28;5037984;28;20092;-64
2023/08/25 05:35:21;;;;;;;7.15;5.38;;;;;;;28.38;50.22;100784.13;5035553;28;20057;-64
2023/08/25 05:37:49;;;;;;;6.70;5.38;;;;;;;28.39;50.30;100791.25;5036054;28;20061;-60
2023/08/25 05:40:17;;;;;;;6.53;5.60;;;;;;;28.40;50.58;100797.53;5021517;28;20053;-60
2023/08/25 05:42:46;;;;;;;6.55;5.82;;;;;;;28.39;50.20;100788.53;5034744;28;20053;-59
2023/08/25 05:45:13;;;;;;;7.53;5.70;;;;;;;28.40;50.28;100798.41;5034547;28;20056;-59
2023/08/25 05:47:42;;;;;;;6.15;5.50;;;;;;;28.40;50.29;100801.13;5034564;28;20053;-59
2023/08/25 05:50:10;;;;;;;6.85;5.78;;;;;;;28.42;50.30;100798.22;5050311;28;20052;-59
2023/08/25 05:52:39;;;;;;;6.65;5.95;;;;;;;28.42;50.67;100800.94;5040247;28;20061;-60
2023/08/25 05:55:13;;;;;;;8.07;6.25;;;;;;;28.43;50.28;100794.44;5043617;28;20065;-59
2023/08/25 05:57:41;;;;;;;8.65;5.90;;;;;;;28.43;50.33;100795.28;5047729;28;20041;-64
2023/08/25 06:00:08;;;;;;;6.47;5.80;;;;;;;28.43;50.25;100787.09;5038855;28;20053;-64
2023/08/25 06:02:43;;;;;;;6.70;5.60;;;;;;;28.44;50.70;100791.53;5047103;28;20076;-65
2023/08/25 06:05:10;;;;;;;6.18;5.57;;;;;;;28.45;50.74;100789.66;5046025;28;20506;-64
2023/08/25 06:07:38;;;;;;;6.70;5.25;;;;;;;28.45;50.43;100795.94;5040059;28;20069;-63
2023/08/25 06:10:06;;;;;;;6.88;5.75;;;;;;;28.46;50.73;100797.63;5050150;28;20053;-64
2023/08/25 06:12:33;;;;;;;7.57;5.88;;;;;;;28.48;50.47;100800.13;5042083;28;20041;-64
2023/08/25 06:15:01;;;;;;;6.85;5.60;;;;;;;28.48;50.85;100803.72;5043199;28;20050;-65
2023/08/25 06:17:28;;;;;;;6.57;5.82;;;;;;;28.50;50.61;100809.81;5048836;28;20041;-63
2023/08/25 06:19:55;;;;;;;6.18;5.50;;;;;;;28.50;50.39;100807.09;5035586;28;20496;-64
2023/08/25 06:22:23;;;;;;;7.35;5.78;;;;;;;28.51;50.86;100808.78;5034713;28;20052;-63
2023/08/25 06:24:50;;;;;;;7.32;5.47;;;;;;;28.53;50.57;100811.31;5034594;28;20045;-64
2023/08/25 06:27:18;;;;;;;6.03;5.43;;;;;;;28.54;50.45;100802.09;5035333;28;20046;-60
2023/08/25 06:29:45;;;;;;;7.72;5.63;;;;;;;28.55;50.64;100795.63;5034662;28;20072;-63
2023/08/25 06:32:14;;;;;;;7.57;5.75;;;;;;;28.56;50.82;100795.44;5034882;28;20384;-64
2023/08/25 06:34:42;;;;;;;6.55;5.25;;;;;;;28.56;50.57;100795.44;5034684;28;20045;-64
2023/08/25 06:37:10;;;;;;;6.07;5.47;;;;;;;28.57;50.31;100799.00;5034466;28;20064;-64
2023/08/25 06:39:37;;;;;;;6.90;6.18;;;;;;;28.58;50.26;100793.34;5034671;28;20050;-64
2023/08/25 06:42:05;;;;;;;5.80;5.20;;;;;;;28.59;50.43;100795.03;5041826;28;20399;-64
2023/08/25 06:44:32;;;;;;;6.68;5.43;;;;;;;28.59;50.22;100792.31;5042245;28;20056;-64
2023/08/25 06:46:59;;;;;;;6.85;5.35;;;;;;;28.61;50.43;100799.47;5034677;28;20068;-64
2023/08/25 06:49:27;;;;;;;5.80;5.20;;;;;;;28.61;50.13;100800.31;5049453;28;20045;-63
2023/08/25 06:51:54;;;;;;;5.40;4.90;;;;;;;28.62;50.55;100801.97;5041689;28;20053;-65
2023/08/25 06:54:23;;;;;;;7.45;5.43;;;;;;;28.62;50.44;100795.69;5037548;28;20049;-64
2023/08/25 06:56:51;;;;;;;7.35;6.20;;;;;;;28.65;50.38;100808.94;5034431;28;20393;-64
2023/08/25 06:59:19;;;;;;;7.57;5.10;;;;;;;28.65;50.39;100803.47;5048920;28;20045;-63
2023/08/25 07:01:46;;;;;;;6.10;5.43;;;;;;;28.66;50.67;100799.72;5041212;28;20518;-64
2023/08/25 07:04:13;;;;;;;7.10;5.38;;;;;;;28.66;50.78;100806.00;5042087;28;20057;-64
2023/08/25 07:06:41;;;;;;;6.00;4.78;;;;;;;28.68;50.49;100814.81;5048017;28;20052;-64
2023/08/25 07:09:09;;;;;;;7.35;5.32;;;;;;;28.69;50.40;100811.06;5037162;28;20045;-57
2023/08/25 07:11:36;;;;;;;6.05;5.43;;;;;;;28.70;50.66;100812.75;5045258;28;20049;-59
2023/08/25 07:14:03;;;;;;;6.10;5.20;;;;;;;28.72;50.81;100810.66;5044488;28;20045;-59
2023/08/25 07:16:31;;;;;;;8.00;4.93;;;;;;;28.73;50.76;100815.09;5038625;28;20543;-59
2023/08/25 07:18:58;;;;;;;7.40;5.35;;;;;;;28.75;50.82;100814.88;5049244;28;20045;-63
2023/08/25 07:21:25;;;;;;;7.75;5.28;;;;;;;28.76;50.43;100814.72;5041239;28;20048;-63
2023/08/25 07:23:53;;;;;;;5.93;4.88;;;;;;;28.77;50.38;100807.38;5041892;28;20056;-63
2023/08/25 07:26:20;;;;;;;7.63;5.18;;;;;;;28.78;50.60;100822.69;5034498;28;20064;-63
2023/08/25 07:28:47;;;;;;;6.07;5.25;;;;;;;28.80;50.30;100817.84;5048514;28;20392;-59
2023/08/25 07:31:15;;;;;;;5.53;4.93;;;;;;;28.81;50.33;100819.56;5040887;28;20049;-59
2023/08/25 07:33:42;;;;;;;5.45;4.78;;;;;;;28.81;50.22;100819.56;5041645;28;20049;-59
2023/08/25 07:36:10;;;;;;;5.47;4.63;;;;;;;28.84;50.13;100821.88;5033826;28;20499;-58
2023/08/25 07:38:38;;;;;;;7.45;5.38;;;;;;;28.85;50.41;100823.59;5036341;28;20038;-64
2023/08/25 07:41:05;;;;;;;5.95;4.90;;;;;;;28.87;50.12;100823.38;5040098;28;20056;-63
2023/08/25 07:43:32;;;;;;;7.40;5.30;;;;;;;28.87;49.39;100823.38;5039561;28;20056;-64
2023/08/25 07:46:00;;;;;;;6.20;4.97;;;;;;;28.87;48.95;100824.22;5036615;28;20519;-64
2023/08/25 07:48:27;;;;;;;7.95;5.53;;;;;;;28.87;48.94;100824.22;5036477;28;20037;-59
2023/08/25 07:50:54;;;;;;;8.07;5.00;;;;;;;28.87;48.73;100818.78;5036562;28;20041;-60
2023/08/25 07:53:22;;;;;;;6.25;4.78;;;;;;;28.88;48.61;100820.44;5039155;28;20049;-59
2023/08/25 07:55:49;;;;;;;7.72;5.57;;;;;;;28.89;48.44;100822.16;5036426;28;20045;-59
2023/08/25 07:58:17;;;;;;;6.75;4.93;;;;;;;28.89;48.21;100824.03;5036442;28;20041;-63
2023/08/25 08:00:44;;;;;;;7.43;5.30;;;;;;;28.89;48.05;100822.16;5036553;28;20056;-63
2023/08/25 08:03:13;;;;;;;6.30;4.97;;;;;;;28.91;47.95;100824.69;5036692;28;20396;-54
2023/08/25 08:05:41;;;;;;;6.90;4.90;;;;;;;28.91;48.38;100817.34;5036131;28;20050;-55
2023/08/25 08:08:09;;;;;;;7.32;5.20;;;;;;;28.92;47.90;100812.72;5035983;28;20042;-53
2023/08/25 08:10:37;;;;;;;6.78;5.07;;;;;;;28.92;47.99;100819.03;5036290;28;20050;-53
2023/08/25 08:13:05;;;;;;;6.10;4.50;;;;;;;28.93;48.30;100815.28;5035960;28;20435;-55
2023/08/25 08:15:33;;;;;;;7.32;5.15;;;;;;;28.93;47.92;100820.72;5035891;28;20045;-53
2023/08/25 08:18:00;;;;;;;8.32;5.15;;;;;;;28.93;48.24;100814.44;5035652;28;20045;-54
2023/08/25 08:20:28;;;;;;;6.53;5.43;;;;;;;28.94;48.03;100816.13;5034958;28;20065;-55
2023/08/25 08:22:57;;;;;;;6.68;5.35;;;;;;;28.95;48.21;100815.06;5035074;28;20052;-59
2023/08/25 08:25:25;;;;;;;8.50;5.70;;;;;;;28.94;48.59;100814.22;5035911;28;20052;-60
2023/08/25 08:27:52;;;;;;;6.35;5.30;;;;;;;28.95;48.48;100815.91;5040137;28;20059;-60
2023/08/25 08:30:20;;;;;;;11.77;5.60;;;;;;;28.95;48.65;100805.00;5046967;28;20057;-60
2023/08/25 08:32:49;;;;;;;7.57;5.47;;;;;;;28.96;48.39;100806.69;5047572;28;20044;-60
2023/08/25 08:35:18;;;;;;;7.65;5.68;;;;;;;28.96;48.33;100806.69;5052184;28;20041;-60
2023/08/25 08:37:45;;;;;;;6.40;5.25;;;;;;;28.96;48.28;100806.69;5040392;28;20056;-54
2023/08/25 08:40:13;;;;;;;7.05;6.05;;;;;;;28.97;48.64;100813.03;5046874;28;20529;-53
2023/08/25 08:42:44;;;;;;;8.25;6.28;;;;;;;28.98;48.53;100810.09;5047865;28;20045;-53
2023/08/25 08:45:12;;;;;;;7.22;5.95;;;;;;;28.97;48.39;100800.25;5039826;28;20048;-50
2023/08/25 08:47:41;;;;;;;7.25;5.55;;;;;;;28.97;48.09;100797.53;5049947;28;20384;-59
2023/08/25 08:50:10;;;;;;;6.80;5.30;;;;;;;28.99;48.15;100802.78;5036023;28;20045;-59
2023/08/25 08:52:39;;;;;;;8.98;5.57;;;;;;;29.00;48.39;100799.84;5036482;28;20049;-59
2023/08/25 08:55:09;;;;;;;6.38;5.40;;;;;;;29.00;48.35;100793.53;5035738;28;20052;-59
2023/08/25 08:57:37;;;;;;;6.15;5.47;;;;;;;29.00;48.27;100799.84;5035957;28;20411;-59
2023/08/25 09:00:10;;;;;;;8.38;6.10;;;;;;;29.02;48.37;100796.94;5035856;28;20052;-59
2023/08/25 09:02:38;;;;;;;7.07;6.38;;;;;;;29.03;48.54;100798.63;5040763;28;20046;-60
2023/08/25 09:05:07;;;;;;;6.53;5.50;;;;;;;29.03;48.36;100791.28;5035607;28;20049;-60
2023/08/25 09:07:38;;;;;;;7.82;7.03;;;;;;;29.05;48.54;100800.13;5035318;28;20049;-51
2023/08/25 09:10:06;;;;;;;7.32;6.22;;;;;;;29.06;48.26;100801.78;5035122;28;20058;-49
2023/08/25 09:12:35;;;;;;;9.88;6.32;;;;;;;29.06;48.35;100792.78;5034728;28;20060;-51
2023/08/25 09:15:06;;;;;;;6.80;6.10;;;;;;;29.06;48.51;100798.22;5035483;28;20506;-50
2023/08/25 09:17:36;;;;;;;7.50;6.80;;;;;;;29.07;48.26;100805.34;5035634;28;20053;-52
2023/08/25 09:20:05;;;;;;;7.25;6.35;;;;;;;29.08;48.82;100794.25;5036015;28;20053;-50
2023/08/25 09:22:35;;;;;;;6.82;6.13;;;;;;;29.08;48.42;100798.84;5035269;28;20049;-51
2023/08/25 09:25:04;;;;;;;8.45;5.72;;;;;;;29.08;48.68;100794.25;5035393;28;20053;-50
2023/08/25 09:27:32;;;;;;;7.72;6.25;;;;;;;29.08;48.85;100791.50;5035832;28;20050;-50
2023/08/25 09:30:06;;;;;;;7.68;6.88;;;;;;;29.09;48.46;100789.66;5047595;28;20057;-51
2023/08/25 09:32:35;;;;;;;6.57;5.90;;;;;;;29.10;48.74;100787.78;5036667;28;20056;-51
2023/08/25 09:35:11;;;;;;;7.63;6.07;;;;;;;29.10;48.61;100785.06;5034995;28;20048;-50
2023/08/25 09:37:41;;;;;;;7.35;6.65;;;;;;;29.11;48.77;100794.91;5035573;28;20091;-60
2023/08/25 09:40:12;;;;;;;7.68;6.75;;;;;;;29.10;48.82;100788.63;5034965;28;20048;-60
2023/08/25 09:42:41;;;;;;;7.68;6.35;;;;;;;29.12;48.38;100791.13;5039896;28;20053;-60
2023/08/25 09:45:10;;;;;;;7.97;6.88;;;;;;;29.12;48.20;100785.69;5045175;28;20408;-60
2023/08/25 09:47:41;;;;;;;7.55;6.78;;;;;;;29.12;48.44;100785.69;5047273;28;20049;-50
2023/08/25 09:50:15;;;;;;;7.07;6.38;;;;;;;29.14;48.16;100783.59;5038531;28;20510;-50
2023/08/25 09:52:45;;;;;;;7.60;6.68;;;;;;;29.13;48.03;100777.31;5047535;28;20057;-60
2023/08/25 09:55:14;;;;;;;6.72;5.97;;;;;;;29.14;48.28;100783.59;5045407;28;20049;-60
2023/08/25 09:57:45;;;;;;;7.47;6.78;;;;;;;29.14;47.92;100781.72;5034874;28;20050;-60
2023/08/25 10:00:13;;;;;;;8.50;6.50;;;;;;;29.13;48.07;100773.72;5033682;28;20060;-60
2023/08/25 10:02:43;;;;;;;8.85;6.63;;;;;;;29.14;48.00;100773.53;5034730;28;20060;-60
2023/08/25 10:05:12;;;;;;;8.82;6.82;;;;;;;29.15;47.98;100767.03;5034113;28;20049;-60
2023/08/25 10:07:41;;;;;;;7.22;6.53;;;;;;;29.15;47.61;100769.78;5034084;28;20072;-60
2023/08/25 10:10:10;;;;;;;7.78;6.95;;;;;;;29.16;47.87;100776.06;5038942;28;20504;-60
2023/08/25 10:12:41;;;;;;;7.10;6.40;;;;;;;29.16;47.87;100771.44;5042602;28;20518;-58
2023/08/25 10:15:16;;;;;;;7.32;6.03;;;;;;;29.17;47.50;100770.44;5039045;28;20496;-59
2023/08/25 10:17:45;;;;;;;7.90;6.50;;;;;;;29.16;47.68;100771.44;5050247;28;20048;-51
2023/08/25 10:20:14;;;;;;;8.38;6.97;;;;;;;29.18;47.77;100768.53;5034116;28;20072;-51
2023/08/25 10:22:47;;;;;;;8.88;7.57;;;;;;;29.18;47.89;100755.75;5034248;28;20049;-50
2023/08/25 10:25:15;;;;;;;;;;;;;;;29.18;48.00;100761.19;5039842;28;20060;-49
2023/08/25 10:27:45;;;;;;;8.48;7.18;;;;;;;29.19;47.82;100753.88;5034310;28;19936;-49
2023/08/25 10:30:14;;;;;;;9.30;7.25;;;;;;;29.21;47.71;100759.94;5034131;28;20049;-53
2023/08/25 10:32:55;;;;;;;12.77;8.02;;;;;;;29.21;47.75;100749.03;5034530;28;20049;-51
2023/08/25 10:35:43;;;;;;;8.05;7.25;;;;;;;29.21;47.54;100752.63;5034208;28;20403;-50
2023/08/25 10:38:20;;;;;;;7.40;6.70;;;;;;;29.23;47.88;100755.16;5041256;28;20051;-59
2023/08/25 10:40:53;;;;;;;8.70;7.50;;;;;;;29.22;47.56;100745.28;5040087;28;20068;-59
2023/08/25 10:43:25;;;;;;;;;;;;;;;29.21;48.01;100749.03;5034284;28;20056;-58
2023/08/25 10:45:53;;;;;;;7.95;6.95;;;;;;;29.23;48.11;100744.25;5033935;28;19925;-59
2023/08/25 10:48:21;;;;;;;9.40;7.15;;;;;;;29.23;47.87;100738.78;5033806;28;20487;-51
2023/08/25 10:51:06;;;;;;;;;;;;;;;29.22;47.92;100737.13;5034328;28;20361;-51
2023/08/25 10:53:36;;;;;;;7.57;6.80;;;;;;;29.23;48.02;100726.00;5033796;28;19921;-53
2023/08/25 10:56:16;;;;;;;7.90;7.10;;;;;;;29.24;47.72;100726.84;5033818;28;20052;-51
2023/08/25 10:59:06;;;;;;;10.05;7.65;;;;;;;29.24;47.92;100733.13;5043379;28;20057;-51
2023/08/25 11:01:38;;;;;;;8.18;6.75;;;;;;;29.25;47.87;100717.59;5033807;28;20054;-56
2023/08/25 11:04:12;;;;;;;7.88;7.18;;;;;;;29.27;47.60;100723.72;5033890;28;20056;-49
2023/08/25 11:06:47;;;;;;;8.15;6.78;;;;;;;29.27;48.03;100721.81;5035064;28;20050;-49
2023/08/25 11:09:18;;;;;;;8.02;7.22;;;;;;;29.29;47.84;100718.88;5036455;28;20061;-57
2023/08/25 11:11:56;;;;;;;10.88;7.78;;;;;;;29.27;47.40;100715.53;5033267;28;20411;-56
2023/08/25 11:14:29;;;;;;;10.68;8.32;;;;;;;29.04;46.53;100716.63;5038257;28;20053;-56
2023/08/25 11:16:58;;;;;;;9.00;7.00;;;;;;;28.76;45.97;100721.22;5033470;28;20050;-56
2023/08/25 11:19:29;;;;;;;8.35;7.07;;;;;;;28.52;45.78;100719.75;5033586;28;20037;-48
2023/08/25 11:22:00;;;;;;;10.05;7.53;;;;;;;28.33;45.36;100721.22;5033855;28;20058;-48
2023/08/25 11:24:31;;;;;;;8.10;7.30;;;;;;;28.17;45.31;100721.47;5033106;28;20049;-47
2023/08/25 11:27:09;;;;;;;11.00;7.60;;;;;;;27.99;45.36;100711.84;5033651;28;20041;-46
2023/08/25 11:29:48;;;;;;;11.65;7.80;;;;;;;27.85;45.18;100705.41;5033329;28;20045;-47
2023/08/25 11:32:16;;;;;;;7.82;6.97;;;;;;;27.75;44.83;100704.88;5033377;28;20072;-47
2023/08/25 11:34:48;;;;;;;11.30;7.63;;;;;;;27.64;44.61;100702.63;5032801;28;20045;-47
2023/08/25 11:37:20;;;;;;;7.80;7.00;;;;;;;27.58;44.65;100695.19;5032236;28;20515;-56